首页
METAR-TAF:

METAR-TAF

机场 :

Marshall, 密蘇里州, 美国

纬度: 39-05-44N, 经度: 093-12-10W, 海拔: 237米

当前天气观测

该预报发布于6小时和40分钟前的20:15 UTC
风速9节,风向西转西北
温度 12°C
湿度 40%
气压 1021 hPa
能見度: 16.1公里
天空无云

METAR: KMHL 162015Z AUTO 29009KT 10SM CLR 12/M01 A3016 RMK AO2 TSNO PWINO

时间: 20:55 (02:55 UTC)


TAF: 丢失

超过4000个机场的气象观测和天气预报(METAR&TAF报告)。

可查询的气象台以黄色和红色小点在地图上表示。

将鼠标移到小点上方,可查看气象台名称。

然后点击查看天气观测和预报。

如需切换地图:点击带黑十字的绿色按钮放大地图;点击带横线的绿色按钮缩小地图;或者点击绿色箭头查看邻近地区的地图。


METAR-TAF: